createdAt,value
2022-08-07T00:01:44.205Z,51.40
2022-08-07T00:04:06.145Z,51.60
2022-08-07T00:06:36.457Z,51.60
2022-08-07T00:09:16.624Z,51.70
2022-08-07T00:11:55.477Z,51.60
2022-08-07T00:14:25.392Z,51.60
2022-08-07T00:17:01.666Z,51.80
2022-08-07T00:19:59.917Z,51.80
2022-08-07T00:22:24.611Z,51.90
2022-08-07T00:25:15.800Z,52.00
2022-08-07T00:27:52.760Z,52.30
2022-08-07T00:30:26.423Z,52.90
2022-08-07T00:33:00.108Z,52.80
2022-08-07T00:35:29.706Z,52.50
2022-08-07T00:37:56.959Z,52.50
2022-08-07T00:40:36.978Z,52.60
2022-08-07T00:43:09.801Z,52.80
2022-08-07T00:45:39.006Z,53.00
2022-08-07T00:48:09.867Z,53.10
2022-08-07T00:50:51.120Z,53.20
2022-08-07T00:53:20.443Z,53.20
2022-08-07T00:56:02.484Z,53.20
2022-08-07T00:58:30.952Z,53.20
2022-08-07T01:00:58.932Z,53.30
2022-08-07T01:03:56.659Z,53.20
2022-08-07T01:06:13.651Z,53.30
2022-08-07T01:08:53.538Z,53.10
2022-08-07T01:12:10.099Z,53.10
2022-08-07T01:14:10.035Z,53.20
2022-08-07T01:16:37.721Z,53.40
2022-08-07T01:19:18.333Z,53.60
2022-08-07T01:21:49.408Z,54.00
2022-08-07T01:24:22.435Z,55.40
2022-08-07T01:26:54.174Z,53.90
2022-08-07T01:29:24.242Z,53.60
2022-08-07T01:31:55.954Z,53.70
2022-08-07T01:34:30.956Z,53.80
2022-08-07T01:37:01.219Z,53.80
2022-08-07T01:39:40.534Z,54.00
2022-08-07T01:42:38.454Z,54.00
2022-08-07T01:45:18.219Z,54.30
2022-08-07T01:48:19.231Z,54.40
2022-08-07T01:50:43.165Z,54.40
2022-08-07T01:53:21.799Z,54.50
2022-08-07T01:56:10.371Z,54.50
2022-08-07T01:58:50.671Z,54.80
2022-08-07T02:02:01.671Z,56.10
2022-08-07T02:04:26.650Z,55.20
2022-08-07T02:06:59.365Z,55.10
2022-08-07T02:09:33.735Z,55.20
2022-08-07T02:12:18.295Z,55.30
2022-08-07T02:14:53.259Z,55.40
2022-08-07T02:17:34.137Z,55.40
2022-08-07T02:20:09.628Z,55.20
2022-08-07T02:22:47.204Z,55.20
2022-08-07T02:26:11.362Z,55.10
2022-08-07T02:28:14.131Z,55.40
2022-08-07T02:30:53.796Z,55.50
2022-08-07T02:33:23.168Z,55.50
2022-08-07T02:36:30.820Z,55.70
2022-08-07T02:38:40.180Z,55.60
2022-08-07T02:41:21.886Z,55.60
2022-08-07T02:43:52.390Z,55.70
2022-08-07T02:46:25.785Z,55.50
2022-08-07T02:48:54.703Z,55.60
2022-08-07T02:51:41.691Z,55.60
2022-08-07T02:54:15.203Z,55.60
2022-08-07T02:56:43.989Z,55.40
2022-08-07T02:59:18.785Z,55.40
2022-08-07T03:01:52.275Z,55.70
2022-08-07T03:04:24.334Z,55.80
2022-08-07T03:06:53.057Z,55.80
2022-08-07T03:09:43.199Z,56.70
2022-08-07T03:12:21.981Z,56.40
2022-08-07T03:14:56.292Z,55.60
2022-08-07T03:17:24.334Z,55.70
2022-08-07T03:19:55.546Z,55.70
2022-08-07T03:22:29.379Z,55.80
2022-08-07T03:24:59.934Z,55.80
2022-08-07T03:27:59.412Z,55.70
2022-08-07T03:30:18.636Z,55.80
2022-08-07T03:32:59.204Z,55.80
2022-08-07T03:35:38.014Z,55.90
2022-08-07T03:38:13.492Z,55.90
2022-08-07T03:40:44.277Z,56.10
2022-08-07T03:43:15.336Z,56.10
2022-08-07T03:45:48.832Z,55.80
2022-08-07T03:48:21.487Z,55.80
2022-08-07T03:50:55.651Z,55.80
2022-08-07T03:53:50.096Z,56.00
2022-08-07T03:56:18.679Z,56.10
2022-08-07T03:59:08.009Z,56.40
2022-08-07T04:01:46.887Z,56.40
2022-08-07T04:04:18.305Z,56.30
2022-08-07T04:06:50.833Z,56.40
2022-08-07T04:09:23.297Z,56.60
2022-08-07T04:12:24.399Z,56.70
2022-08-07T04:14:43.669Z,56.60
2022-08-07T04:17:20.320Z,56.90
2022-08-07T04:19:52.667Z,57.00
2022-08-07T04:22:28.741Z,56.90
2022-08-07T04:25:01.652Z,56.90
2022-08-07T04:27:36.273Z,56.90
2022-08-07T04:30:36.034Z,57.00
2022-08-07T04:33:15.792Z,57.10
2022-08-07T04:35:50.249Z,57.40
2022-08-07T04:38:20.626Z,57.50
2022-08-07T04:40:51.697Z,56.90
2022-08-07T04:44:12.566Z,56.90
2022-08-07T04:46:35.896Z,56.90
2022-08-07T04:49:24.660Z,57.30
2022-08-07T04:52:08.921Z,57.40
2022-08-07T04:54:40.408Z,57.50
2022-08-07T04:58:10.523Z,57.40
2022-08-07T05:00:17.449Z,57.50
2022-08-07T05:03:17.203Z,57.80
2022-08-07T05:06:19.688Z,58.30
2022-08-07T05:09:43.041Z,58.30
2022-08-07T05:12:15.582Z,58.20
2022-08-07T05:15:04.173Z,58.10
2022-08-07T05:17:51.569Z,58.30
2022-08-07T05:20:31.796Z,58.50
2022-08-07T05:23:04.370Z,58.40
2022-08-07T05:25:36.631Z,58.30
2022-08-07T05:28:23.381Z,58.20
2022-08-07T05:30:56.957Z,58.10
2022-08-07T05:33:28.435Z,58.00
2022-08-07T05:35:56.911Z,57.60
2022-08-07T05:38:59.437Z,57.60
2022-08-07T05:41:17.006Z,57.50
2022-08-07T05:44:12.071Z,57.40
2022-08-07T05:46:38.463Z,57.60
2022-08-07T05:49:12.126Z,57.70
2022-08-07T05:51:46.277Z,58.80
2022-08-07T05:54:30.623Z,57.70
2022-08-07T05:57:03.501Z,57.60
2022-08-07T05:59:39.028Z,57.20
2022-08-07T06:02:29.209Z,56.60
2022-08-07T06:05:06.562Z,56.80
2022-08-07T06:08:14.682Z,56.90
2022-08-07T06:10:24.355Z,56.70
2022-08-07T06:12:51.495Z,56.00
2022-08-07T06:15:20.419Z,55.20
2022-08-07T06:17:53.635Z,54.00
2022-08-07T06:20:49.889Z,53.20
2022-08-07T06:23:46.338Z,52.10
2022-08-07T06:26:02.212Z,48.80
2022-08-07T06:28:30.596Z,46.40
2022-08-07T06:30:58.693Z,44.70
2022-08-07T06:33:27.452Z,42.20
2022-08-07T06:36:11.983Z,39.90
2022-08-07T06:38:58.716Z,37.50
2022-08-07T06:42:02.510Z,35.90
2022-08-07T06:44:51.603Z,33.60
2022-08-07T06:47:21.086Z,32.00
2022-08-07T06:49:51.949Z,32.40
2022-08-07T06:52:35.586Z,31.10
2022-08-07T06:55:34.247Z,30.30
2022-08-07T06:58:10.426Z,30.00
2022-08-07T07:00:46.845Z,30.10
2022-08-07T07:03:26.328Z,31.30
2022-08-07T07:06:11.067Z,30.00
2022-08-07T07:08:39.959Z,29.70
2022-08-07T07:12:08.579Z,28.50
2022-08-07T07:14:03.987Z,28.50
2022-08-07T07:16:49.749Z,28.30
2022-08-07T07:19:55.463Z,28.00
2022-08-07T07:22:33.862Z,27.60
2022-08-07T07:25:14.153Z,27.60
2022-08-07T07:28:29.618Z,27.80
2022-08-07T07:31:04.792Z,27.90
2022-08-07T07:33:36.016Z,28.20
2022-08-07T07:36:12.521Z,28.40
2022-08-07T07:38:45.953Z,28.40
2022-08-07T07:41:17.692Z,28.30
2022-08-07T07:44:16.810Z,28.90
2022-08-07T07:46:54.478Z,28.50
2022-08-07T07:50:34.008Z,29.20
2022-08-07T07:52:17.143Z,28.30
2022-08-07T07:54:50.771Z,28.50
2022-08-07T07:57:53.385Z,28.60
2022-08-07T08:00:09.528Z,27.50
2022-08-07T08:03:01.009Z,27.70
2022-08-07T08:05:42.820Z,27.50
2022-08-07T08:08:35.669Z,27.50
2022-08-07T08:11:16.309Z,27.60
2022-08-07T08:13:58.119Z,26.70
2022-08-07T08:16:35.028Z,26.30
2022-08-07T08:19:09.867Z,26.10
2022-08-07T08:22:07.906Z,26.40
2022-08-07T08:25:24.907Z,26.30
2022-08-07T08:28:04.564Z,26.80
2022-08-07T08:30:34.946Z,25.90
2022-08-07T08:33:16.855Z,25.70
2022-08-07T08:35:50.891Z,25.90
2022-08-07T08:38:20.802Z,26.00
2022-08-07T08:41:05.569Z,25.90
2022-08-07T08:43:56.056Z,26.10
2022-08-07T08:46:54.783Z,25.80
2022-08-07T08:49:33.364Z,25.90
2022-08-07T08:52:16.853Z,25.90
2022-08-07T08:55:54.414Z,27.30
2022-08-07T08:58:28.879Z,26.50
2022-08-07T09:01:29.994Z,26.00
2022-08-07T09:04:13.390Z,25.80
2022-08-07T09:07:16.839Z,24.80
2022-08-07T09:10:14.143Z,25.80
2022-08-07T09:12:59.517Z,25.90
2022-08-07T09:16:24.120Z,25.30
2022-08-07T09:18:58.370Z,25.30
2022-08-07T09:21:58.232Z,24.80
2022-08-07T09:24:30.792Z,25.10
2022-08-07T09:27:17.269Z,24.20
2022-08-07T09:30:06.179Z,24.70
2022-08-07T09:32:56.700Z,23.90
2022-08-07T09:36:03.403Z,23.60
2022-08-07T09:38:50.270Z,23.60
2022-08-07T09:42:02.973Z,23.30
2022-08-07T09:47:50.041Z,23.50
2022-08-07T09:48:00.000Z,23.10
2022-08-07T09:50:48.380Z,22.90
2022-08-07T09:53:22.440Z,22.60
2022-08-07T09:56:19.704Z,22.50
2022-08-07T09:59:21.611Z,22.30
2022-08-07T10:02:06.512Z,23.10
2022-08-07T10:04:57.133Z,23.40
2022-08-07T10:07:39.672Z,23.20
2022-08-07T10:11:07.597Z,22.80
2022-08-07T10:14:01.847Z,22.50
2022-08-07T10:17:00.884Z,22.10
2022-08-07T10:19:46.411Z,21.80
2022-08-07T10:22:43.123Z,21.60
2022-08-07T10:25:42.201Z,21.50
2022-08-07T10:28:32.888Z,21.70
2022-08-07T10:31:15.091Z,22.90
2022-08-07T10:34:15.315Z,22.10
2022-08-07T10:37:13.939Z,21.70
2022-08-07T10:40:12.634Z,21.30
2022-08-07T10:43:01.515Z,21.50
2022-08-07T10:45:45.219Z,21.60
2022-08-07T10:49:14.726Z,21.10
2022-08-07T10:52:02.266Z,20.10
2022-08-07T10:54:45.100Z,21.10
2022-08-07T10:57:56.020Z,22.00
2022-08-07T11:00:36.340Z,21.40
2022-08-07T11:03:13.319Z,21.90
2022-08-07T11:05:54.742Z,21.50
2022-08-07T11:08:54.280Z,21.20
2022-08-07T11:11:29.624Z,21.40
2022-08-07T11:14:44.103Z,21.70
2022-08-07T11:17:09.036Z,22.20
2022-08-07T11:19:59.823Z,22.10
2022-08-07T11:22:45.529Z,21.50
2022-08-07T11:25:24.955Z,21.70
2022-08-07T11:28:06.658Z,21.80
2022-08-07T11:31:01.730Z,22.00
2022-08-07T11:33:59.394Z,22.50
2022-08-07T11:36:33.668Z,22.00
2022-08-07T11:39:19.691Z,22.20
2022-08-07T11:42:16.815Z,21.90
2022-08-07T11:44:58.626Z,21.90
2022-08-07T11:47:38.900Z,22.20
2022-08-07T11:50:57.268Z,22.00
2022-08-07T11:54:00.260Z,22.10
2022-08-07T11:56:59.369Z,22.60
2022-08-07T12:00:11.412Z,21.70
2022-08-07T12:02:52.060Z,22.10
2022-08-07T12:05:58.352Z,22.30
2022-08-07T12:08:45.633Z,21.60
2022-08-07T12:11:43.473Z,21.20
2022-08-07T12:14:32.895Z,21.50
2022-08-07T12:17:19.843Z,20.90
2022-08-07T12:20:30.427Z,20.80
2022-08-07T12:23:14.412Z,19.10
2022-08-07T12:26:22.835Z,19.60
2022-08-07T12:29:05.885Z,19.90
2022-08-07T12:32:01.817Z,19.80
2022-08-07T12:34:35.971Z,19.80
2022-08-07T12:37:08.684Z,19.20
2022-08-07T12:39:50.912Z,19.80
2022-08-07T12:42:27.797Z,19.80
2022-08-07T12:44:58.430Z,20.50
2022-08-07T12:47:54.103Z,20.40
2022-08-07T12:50:54.805Z,20.80
2022-08-07T12:54:24.098Z,20.80
2022-08-07T12:56:35.943Z,22.10
2022-08-07T12:59:08.113Z,21.20
2022-08-07T13:02:09.652Z,21.20
2022-08-07T13:05:14.898Z,21.40
2022-08-07T13:08:33.885Z,21.30
2022-08-07T13:11:21.318Z,21.10
2022-08-07T13:13:57.773Z,21.00
2022-08-07T13:16:51.746Z,21.40
2022-08-07T13:19:45.921Z,21.90
2022-08-07T13:22:27.663Z,21.30
2022-08-07T13:24:57.510Z,21.90
2022-08-07T13:28:10.620Z,21.90
2022-08-07T13:30:41.171Z,22.20
2022-08-07T13:34:30.926Z,22.50
2022-08-07T13:36:43.409Z,23.50
2022-08-07T13:39:28.488Z,24.20
2022-08-07T13:42:10.502Z,23.80
2022-08-07T13:44:39.665Z,23.40
2022-08-07T13:47:15.733Z,23.40
2022-08-07T13:50:34.580Z,24.10
2022-08-07T13:52:44.586Z,24.00
2022-08-07T13:55:19.173Z,24.90
2022-08-07T13:58:01.695Z,25.10
2022-08-07T14:00:39.551Z,25.00
2022-08-07T14:03:29.154Z,25.80
2022-08-07T14:06:09.404Z,25.80
2022-08-07T14:08:53.709Z,25.70
2022-08-07T14:11:23.524Z,25.80
2022-08-07T14:14:01.869Z,27.10
2022-08-07T14:16:34.220Z,27.60
2022-08-07T14:19:11.254Z,27.40
2022-08-07T14:22:03.902Z,27.80
2022-08-07T14:24:46.825Z,27.50
2022-08-07T14:28:12.615Z,27.20
2022-08-07T14:30:11.072Z,26.90
2022-08-07T14:32:48.112Z,27.40
2022-08-07T14:35:45.073Z,27.20
2022-08-07T14:38:26.400Z,27.20
2022-08-07T14:41:02.217Z,26.60
2022-08-07T14:43:59.470Z,27.10
2022-08-07T14:46:31.543Z,26.70
2022-08-07T14:49:56.086Z,26.60
2022-08-07T14:52:04.700Z,27.20
2022-08-07T14:54:41.735Z,27.40
2022-08-07T14:57:19.266Z,27.70
2022-08-07T15:02:39.036Z,27.80
2022-08-07T15:05:20.373Z,28.50
2022-08-07T15:16:31.233Z,28.80
2022-08-07T15:19:02.628Z,29.30
2022-08-07T15:21:44.368Z,29.20
2022-08-07T15:25:12.959Z,29.50
2022-08-07T15:27:22.387Z,29.40
2022-08-07T15:30:06.934Z,29.50
2022-08-07T15:33:01.492Z,29.30
2022-08-07T15:36:00.450Z,29.40
2022-08-07T15:38:32.985Z,29.70
2022-08-07T15:41:24.278Z,29.30
2022-08-07T15:44:12.408Z,30.00
2022-08-07T15:46:51.691Z,29.60
2022-08-07T15:52:30.713Z,29.90
2022-08-07T15:55:03.440Z,29.80
2022-08-07T15:57:48.072Z,30.50
2022-08-07T16:00:32.031Z,31.70
2022-08-07T16:03:46.442Z,30.20
2022-08-07T16:06:10.357Z,30.00
2022-08-07T16:08:41.799Z,30.00
2022-08-07T16:11:28.818Z,30.00
2022-08-07T16:14:12.936Z,31.10
2022-08-07T16:16:49.221Z,29.90
2022-08-07T16:19:59.793Z,30.00
2022-08-07T16:22:33.354Z,29.70
2022-08-07T16:25:54.141Z,30.00
2022-08-07T16:30:07.832Z,30.10
2022-08-07T16:31:57.728Z,30.20
2022-08-07T16:34:41.893Z,30.40
2022-08-07T16:38:05.477Z,30.80
2022-08-07T16:40:11.623Z,30.90
2022-08-07T16:44:02.624Z,30.70
2022-08-07T16:47:02.916Z,31.30
2022-08-07T16:50:28.730Z,31.70
2022-08-07T16:52:51.990Z,30.90
2022-08-07T16:55:47.159Z,30.70
2022-08-07T16:59:10.045Z,30.60
2022-08-07T17:01:49.563Z,31.40
2022-08-07T17:04:29.644Z,31.60
2022-08-07T17:07:08.451Z,31.00
2022-08-07T17:10:06.053Z,31.00
2022-08-07T17:13:17.255Z,31.10
2022-08-07T17:15:52.865Z,31.60
2022-08-07T17:18:39.487Z,31.00
2022-08-07T17:21:18.817Z,31.60
2022-08-07T17:24:02.024Z,31.20
2022-08-07T17:26:51.169Z,30.90
2022-08-07T17:30:14.489Z,30.60
2022-08-07T17:32:59.335Z,30.70
2022-08-07T17:35:54.899Z,31.90
2022-08-07T17:38:35.196Z,30.90
2022-08-07T17:42:02.257Z,31.30
2022-08-07T17:44:35.048Z,31.40
2022-08-07T17:47:08.567Z,31.90
2022-08-07T17:49:44.974Z,31.80
2022-08-07T17:52:39.750Z,32.00
2022-08-07T17:55:14.435Z,31.60
2022-08-07T17:58:07.191Z,31.90
2022-08-07T18:00:49.338Z,31.90
2022-08-07T18:04:03.887Z,32.10
2022-08-07T18:06:38.637Z,32.40
2022-08-07T18:09:08.739Z,32.80
2022-08-07T18:12:07.067Z,33.20
2022-08-07T18:14:46.367Z,33.30
2022-08-07T18:18:45.095Z,33.70
2022-08-07T18:21:07.958Z,34.80
2022-08-07T18:23:43.689Z,35.10
2022-08-07T18:26:27.782Z,35.00
2022-08-07T18:30:05.887Z,34.90
2022-08-07T18:32:16.911Z,35.00
2022-08-07T18:35:17.775Z,35.50
2022-08-07T18:38:55.492Z,35.40
2022-08-07T18:41:09.213Z,35.40
2022-08-07T18:44:00.226Z,36.00
2022-08-07T18:46:33.329Z,35.90
2022-08-07T18:50:19.276Z,36.10
2022-08-07T18:52:54.022Z,36.40
2022-08-07T18:55:58.205Z,36.50
2022-08-07T18:58:52.469Z,36.90
2022-08-07T19:02:20.159Z,37.00
2022-08-07T19:04:56.166Z,37.00
2022-08-07T19:07:51.605Z,37.10
2022-08-07T19:10:31.114Z,37.60
2022-08-07T19:13:11.545Z,37.70
2022-08-07T19:17:00.320Z,38.10
2022-08-07T19:19:04.855Z,38.00
2022-08-07T19:22:03.953Z,38.10
2022-08-07T19:24:46.191Z,38.60
2022-08-07T19:28:57.233Z,38.60
2022-08-07T19:31:03.179Z,38.80
2022-08-07T19:33:12.722Z,39.40
2022-08-07T19:35:42.187Z,39.60
2022-08-07T19:38:17.644Z,40.00
2022-08-07T19:40:50.812Z,40.20
2022-08-07T19:43:49.135Z,40.50
2022-08-07T19:46:26.664Z,40.80
2022-08-07T19:49:07.328Z,41.00
2022-08-07T19:51:51.853Z,41.00
2022-08-07T19:54:33.034Z,41.40
2022-08-07T19:58:00.841Z,41.80
2022-08-07T20:00:02.343Z,41.80
2022-08-07T20:02:52.275Z,42.00
2022-08-07T20:05:28.130Z,42.50
2022-08-07T20:08:02.114Z,42.80
2022-08-07T20:10:51.468Z,42.90
2022-08-07T20:13:32.144Z,43.00
2022-08-07T20:16:02.048Z,43.30
2022-08-07T20:18:32.302Z,43.40
2022-08-07T20:21:02.323Z,43.40
2022-08-07T20:23:40.814Z,43.80
2022-08-07T20:26:12.970Z,43.80
2022-08-07T20:28:51.737Z,43.90
2022-08-07T20:31:21.802Z,44.00
2022-08-07T20:33:56.528Z,44.50
2022-08-07T20:36:27.469Z,44.50
2022-08-07T20:39:00.252Z,44.60
2022-08-07T20:41:38.453Z,44.50
2022-08-07T20:44:12.904Z,45.80
2022-08-07T20:46:43.909Z,44.70
2022-08-07T20:50:00.291Z,44.90
2022-08-07T20:52:07.819Z,45.20
2022-08-07T20:54:45.574Z,44.90
2022-08-07T20:57:24.799Z,45.40
2022-08-07T21:00:07.320Z,45.40
2022-08-07T21:02:58.722Z,45.30
2022-08-07T21:05:54.918Z,45.50
2022-08-07T21:09:00.919Z,45.60
2022-08-07T21:11:49.916Z,45.50
2022-08-07T21:14:33.243Z,45.70
2022-08-07T21:18:01.047Z,45.90
2022-08-07T21:20:04.668Z,46.20
2022-08-07T21:22:39.483Z,46.10
2022-08-07T21:25:15.577Z,46.40
2022-08-07T21:28:16.689Z,46.60
2022-08-07T21:31:11.053Z,46.70
2022-08-07T21:33:54.780Z,46.90
2022-08-07T21:36:31.733Z,47.20
2022-08-07T21:39:45.432Z,47.40
2022-08-07T21:42:47.150Z,47.60
2022-08-07T21:46:08.776Z,48.00
2022-08-07T21:48:29.330Z,49.50
2022-08-07T21:51:32.527Z,48.70
2022-08-07T21:54:19.728Z,49.00
2022-08-07T21:57:39.400Z,49.30
2022-08-07T22:00:22.925Z,49.30
2022-08-07T22:03:31.755Z,49.50
2022-08-07T22:06:07.561Z,49.70
2022-08-07T22:08:59.202Z,49.80
2022-08-07T22:11:30.743Z,50.00
2022-08-07T22:14:15.309Z,50.00
2022-08-07T22:16:59.939Z,50.20
2022-08-07T22:19:34.895Z,50.40
2022-08-07T22:22:29.277Z,50.50
2022-08-07T22:25:03.268Z,50.60
2022-08-07T22:28:20.285Z,50.70
2022-08-07T22:30:27.112Z,50.90
2022-08-07T22:33:13.091Z,51.10
2022-08-07T22:35:56.261Z,51.30
2022-08-07T22:38:54.295Z,51.20
2022-08-07T22:42:02.422Z,51.20
2022-08-07T22:44:21.677Z,51.20
2022-08-07T22:47:04.132Z,51.20
2022-08-07T22:50:06.690Z,51.40
2022-08-07T22:52:58.587Z,51.50
2022-08-07T22:55:47.423Z,51.50
2022-08-07T22:58:49.279Z,51.60
2022-08-07T23:01:50.009Z,51.70
2022-08-07T23:04:57.798Z,51.80
2022-08-07T23:07:42.977Z,52.00
2022-08-07T23:10:38.481Z,52.10
2022-08-07T23:13:48.517Z,52.30
2022-08-07T23:16:54.948Z,52.20
2022-08-07T23:20:19.349Z,52.30
2022-08-07T23:23:05.081Z,52.20
2022-08-07T23:25:45.853Z,52.30
2022-08-07T23:28:28.900Z,52.30
2022-08-07T23:32:48.673Z,52.40
2022-08-07T23:35:01.077Z,52.40
2022-08-07T23:38:05.178Z,52.70
2022-08-07T23:40:50.965Z,52.80
2022-08-07T23:43:38.252Z,52.90
2022-08-07T23:46:37.341Z,53.30
2022-08-07T23:49:25.333Z,53.20
2022-08-07T23:53:17.606Z,53.10
2022-08-07T23:55:51.736Z,54.30
2022-08-07T23:58:42.644Z,53.40
